sensor_id;sensor_type;location;lat;lon;timestamp;P1;durP1;ratioP1;P2;durP2;ratioP2
12469;SDS011;36499;46.484;13.832;2023-02-03T00:01:21;8.07;;;5.80;;
12469;SDS011;36499;46.484;13.832;2023-02-03T00:03:48;9.67;;;5.90;;
12469;SDS011;36499;46.484;13.832;2023-02-03T00:06:15;11.97;;;7.07;;
12469;SDS011;36499;46.484;13.832;2023-02-03T00:08:43;13.23;;;8.20;;
12469;SDS011;36499;46.484;13.832;2023-02-03T00:11:10;7.47;;;5.33;;
12469;SDS011;36499;46.484;13.832;2023-02-03T00:13:39;8.70;;;5.83;;
12469;SDS011;36499;46.484;13.832;2023-02-03T00:16:06;9.63;;;5.30;;
12469;SDS011;36499;46.484;13.832;2023-02-03T00:18:33;12.40;;;6.20;;
12469;SDS011;36499;46.484;13.832;2023-02-03T00:21:00;11.33;;;6.10;;
12469;SDS011;36499;46.484;13.832;2023-02-03T00:23:27;10.27;;;5.83;;
12469;SDS011;36499;46.484;13.832;2023-02-03T00:25:56;12.17;;;6.80;;
12469;SDS011;36499;46.484;13.832;2023-02-03T00:28:23;10.23;;;7.03;;
12469;SDS011;36499;46.484;13.832;2023-02-03T00:30:53;11.47;;;6.40;;
12469;SDS011;36499;46.484;13.832;2023-02-03T00:33:20;7.03;;;4.67;;
12469;SDS011;36499;46.484;13.832;2023-02-03T00:35:47;6.90;;;3.87;;
12469;SDS011;36499;46.484;13.832;2023-02-03T00:38:14;5.23;;;3.30;;
12469;SDS011;36499;46.484;13.832;2023-02-03T00:40:41;4.70;;;3.23;;
12469;SDS011;36499;46.484;13.832;2023-02-03T00:43:16;12.53;;;3.80;;
12469;SDS011;36499;46.484;13.832;2023-02-03T00:45:43;4.37;;;2.97;;
12469;SDS011;36499;46.484;13.832;2023-02-03T00:48:12;5.07;;;2.90;;
12469;SDS011;36499;46.484;13.832;2023-02-03T00:50:39;4.77;;;2.63;;
12469;SDS011;36499;46.484;13.832;2023-02-03T00:53:06;6.27;;;3.17;;
12469;SDS011;36499;46.484;13.832;2023-02-03T00:55:33;5.53;;;3.10;;
12469;SDS011;36499;46.484;13.832;2023-02-03T00:58:00;4.17;;;2.70;;
12469;SDS011;36499;46.484;13.832;2023-02-03T01:00:27;5.00;;;3.77;;
12469;SDS011;36499;46.484;13.832;2023-02-03T01:02:54;6.90;;;3.97;;
12469;SDS011;36499;46.484;13.832;2023-02-03T01:05:23;5.13;;;3.60;;
12469;SDS011;36499;46.484;13.832;2023-02-03T01:07:50;8.57;;;4.90;;
12469;SDS011;36499;46.484;13.832;2023-02-03T01:10:17;7.27;;;4.50;;
12469;SDS011;36499;46.484;13.832;2023-02-03T01:12:44;12.13;;;5.83;;
12469;SDS011;36499;46.484;13.832;2023-02-03T01:15:11;9.30;;;5.23;;
12469;SDS011;36499;46.484;13.832;2023-02-03T01:17:39;7.43;;;4.80;;
12469;SDS011;36499;46.484;13.832;2023-02-03T01:20:06;7.53;;;4.60;;
12469;SDS011;36499;46.484;13.832;2023-02-03T01:22:37;8.37;;;4.87;;
12469;SDS011;36499;46.484;13.832;2023-02-03T01:25:05;8.37;;;4.90;;
12469;SDS011;36499;46.484;13.832;2023-02-03T01:27:33;11.70;;;5.40;;
12469;SDS011;36499;46.484;13.832;2023-02-03T01:30:00;7.03;;;4.90;;
12469;SDS011;36499;46.484;13.832;2023-02-03T01:32:27;8.37;;;5.40;;
12469;SDS011;36499;46.484;13.832;2023-02-03T01:34:54;8.93;;;5.13;;
12469;SDS011;36499;46.484;13.832;2023-02-03T01:37:21;6.37;;;5.00;;
12469;SDS011;36499;46.484;13.832;2023-02-03T01:39:50;7.23;;;5.03;;
12469;SDS011;36499;46.484;13.832;2023-02-03T01:42:17;8.00;;;5.40;;
12469;SDS011;36499;46.484;13.832;2023-02-03T01:44:44;7.73;;;5.47;;
12469;SDS011;36499;46.484;13.832;2023-02-03T01:47:16;10.87;;;6.03;;
12469;SDS011;36499;46.484;13.832;2023-02-03T01:49:53;8.83;;;6.27;;
12469;SDS011;36499;46.484;13.832;2023-02-03T01:52:28;9.33;;;6.10;;
12469;SDS011;36499;46.484;13.832;2023-02-03T01:54:59;8.33;;;5.90;;
12469;SDS011;36499;46.484;13.832;2023-02-03T01:57:34;8.93;;;4.83;;
12469;SDS011;36499;46.484;13.832;2023-02-03T02:00:08;7.23;;;4.40;;
12469;SDS011;36499;46.484;13.832;2023-02-03T02:02:37;9.77;;;4.80;;
12469;SDS011;36499;46.484;13.832;2023-02-03T02:05:05;7.43;;;5.37;;
12469;SDS011;36499;46.484;13.832;2023-02-03T02:07:39;8.13;;;5.00;;
12469;SDS011;36499;46.484;13.832;2023-02-03T02:10:11;8.77;;;5.73;;
12469;SDS011;36499;46.484;13.832;2023-02-03T02:12:38;8.80;;;5.87;;
12469;SDS011;36499;46.484;13.832;2023-02-03T02:15:06;7.23;;;5.33;;
12469;SDS011;36499;46.484;13.832;2023-02-03T02:17:38;9.27;;;5.13;;
12469;SDS011;36499;46.484;13.832;2023-02-03T02:20:37;11.77;;;6.93;;
12469;SDS011;36499;46.484;13.832;2023-02-03T02:27:05;13.93;;;8.30;;
12469;SDS011;36499;46.484;13.832;2023-02-03T02:33:04;14.67;;;9.30;;
12469;SDS011;36499;46.484;13.832;2023-02-03T02:35:46;13.67;;;9.30;;
12469;SDS011;36499;46.484;13.832;2023-02-03T02:38:24;16.40;;;9.80;;
12469;SDS011;36499;46.484;13.832;2023-02-03T02:41:07;16.33;;;10.07;;
12469;SDS011;36499;46.484;13.832;2023-02-03T02:43:43;18.40;;;10.10;;
12469;SDS011;36499;46.484;13.832;2023-02-03T02:46:23;12.40;;;8.90;;
12469;SDS011;36499;46.484;13.832;2023-02-03T02:49:01;16.30;;;9.47;;
12469;SDS011;36499;46.484;13.832;2023-02-03T02:51:35;16.43;;;10.27;;
12469;SDS011;36499;46.484;13.832;2023-02-03T02:54:05;12.17;;;6.83;;
12469;SDS011;36499;46.484;13.832;2023-02-03T02:56:38;8.00;;;5.40;;
12469;SDS011;36499;46.484;13.832;2023-02-03T02:59:08;11.73;;;6.67;;
12469;SDS011;36499;46.484;13.832;2023-02-03T03:01:36;10.50;;;7.30;;
12469;SDS011;36499;46.484;13.832;2023-02-03T03:04:06;13.47;;;8.67;;
12469;SDS011;36499;46.484;13.832;2023-02-03T03:06:39;15.50;;;10.73;;
12469;SDS011;36499;46.484;13.832;2023-02-03T03:09:12;18.60;;;12.13;;
12469;SDS011;36499;46.484;13.832;2023-02-03T03:11:46;14.07;;;8.93;;
12469;SDS011;36499;46.484;13.832;2023-02-03T03:14:19;12.90;;;8.70;;
12469;SDS011;36499;46.484;13.832;2023-02-03T03:16:53;11.17;;;7.80;;
12469;SDS011;36499;46.484;13.832;2023-02-03T03:19:30;18.17;;;13.17;;
12469;SDS011;36499;46.484;13.832;2023-02-03T03:22:04;16.13;;;11.63;;
12469;SDS011;36499;46.484;13.832;2023-02-03T03:24:37;17.80;;;12.33;;
12469;SDS011;36499;46.484;13.832;2023-02-03T03:27:12;23.17;;;14.50;;
12469;SDS011;36499;46.484;13.832;2023-02-03T03:29:47;22.70;;;15.20;;
12469;SDS011;36499;46.484;13.832;2023-02-03T03:32:19;20.73;;;14.13;;
12469;SDS011;36499;46.484;13.832;2023-02-03T03:34:49;13.73;;;8.77;;
12469;SDS011;36499;46.484;13.832;2023-02-03T03:37:18;19.60;;;11.67;;
12469;SDS011;36499;46.484;13.832;2023-02-03T03:39:54;22.93;;;14.20;;
12469;SDS011;36499;46.484;13.832;2023-02-03T03:42:25;20.40;;;13.23;;
12469;SDS011;36499;46.484;13.832;2023-02-03T03:45:02;21.37;;;15.00;;
12469;SDS011;36499;46.484;13.832;2023-02-03T03:47:40;20.60;;;14.87;;
12469;SDS011;36499;46.484;13.832;2023-02-03T03:50:16;20.83;;;14.50;;
12469;SDS011;36499;46.484;13.832;2023-02-03T03:52:48;18.10;;;13.67;;
12469;SDS011;36499;46.484;13.832;2023-02-03T03:55:18;21.60;;;15.90;;
12469;SDS011;36499;46.484;13.832;2023-02-03T03:57:48;21.40;;;15.57;;
12469;SDS011;36499;46.484;13.832;2023-02-03T04:00:23;18.87;;;14.83;;
12469;SDS011;36499;46.484;13.832;2023-02-03T04:02:56;18.80;;;13.10;;
12469;SDS011;36499;46.484;13.832;2023-02-03T04:05:31;19.43;;;11.97;;
12469;SDS011;36499;46.484;13.832;2023-02-03T04:07:59;13.80;;;9.73;;
12469;SDS011;36499;46.484;13.832;2023-02-03T04:10:29;13.70;;;10.00;;
12469;SDS011;36499;46.484;13.832;2023-02-03T04:12:58;16.47;;;11.93;;
12469;SDS011;36499;46.484;13.832;2023-02-03T04:15:26;16.40;;;12.87;;
12469;SDS011;36499;46.484;13.832;2023-02-03T04:17:53;19.33;;;13.90;;
12469;SDS011;36499;46.484;13.832;2023-02-03T04:20:21;20.13;;;14.00;;
12469;SDS011;36499;46.484;13.832;2023-02-03T04:22:49;25.93;;;14.30;;
12469;SDS011;36499;46.484;13.832;2023-02-03T04:25:18;22.10;;;14.43;;
12469;SDS011;36499;46.484;13.832;2023-02-03T04:27:45;21.60;;;14.17;;
12469;SDS011;36499;46.484;13.832;2023-02-03T04:30:12;22.20;;;13.90;;
12469;SDS011;36499;46.484;13.832;2023-02-03T04:32:42;19.83;;;13.27;;
12469;SDS011;36499;46.484;13.832;2023-02-03T04:35:09;20.50;;;13.63;;
12469;SDS011;36499;46.484;13.832;2023-02-03T04:37:36;17.90;;;13.77;;
12469;SDS011;36499;46.484;13.832;2023-02-03T04:40:07;17.67;;;13.60;;
12469;SDS011;36499;46.484;13.832;2023-02-03T04:42:35;20.20;;;14.07;;
12469;SDS011;36499;46.484;13.832;2023-02-03T04:45:03;21.60;;;13.30;;
12469;SDS011;36499;46.484;13.832;2023-02-03T04:47:32;18.27;;;12.23;;
12469;SDS011;36499;46.484;13.832;2023-02-03T04:50:00;18.40;;;11.70;;
12469;SDS011;36499;46.484;13.832;2023-02-03T04:52:27;18.77;;;13.13;;
12469;SDS011;36499;46.484;13.832;2023-02-03T04:54:54;20.50;;;13.23;;
12469;SDS011;36499;46.484;13.832;2023-02-03T04:57:22;18.13;;;12.50;;
12469;SDS011;36499;46.484;13.832;2023-02-03T04:59:50;17.83;;;13.13;;
12469;SDS011;36499;46.484;13.832;2023-02-03T05:02:17;22.63;;;15.17;;
12469;SDS011;36499;46.484;13.832;2023-02-03T05:04:44;20.60;;;14.47;;
12469;SDS011;36499;46.484;13.832;2023-02-03T05:07:11;19.50;;;14.40;;
12469;SDS011;36499;46.484;13.832;2023-02-03T05:09:38;19.90;;;13.93;;
12469;SDS011;36499;46.484;13.832;2023-02-03T05:12:05;16.47;;;11.77;;
12469;SDS011;36499;46.484;13.832;2023-02-03T05:14:33;15.70;;;11.87;;
12469;SDS011;36499;46.484;13.832;2023-02-03T05:17:00;18.90;;;13.17;;
12469;SDS011;36499;46.484;13.832;2023-02-03T05:19:27;18.13;;;12.40;;
12469;SDS011;36499;46.484;13.832;2023-02-03T05:21:54;18.60;;;12.43;;
12469;SDS011;36499;46.484;13.832;2023-02-03T05:24:21;16.07;;;11.80;;
12469;SDS011;36499;46.484;13.832;2023-02-03T05:26:48;16.37;;;11.43;;
12469;SDS011;36499;46.484;13.832;2023-02-03T05:29:15;17.20;;;11.40;;
12469;SDS011;36499;46.484;13.832;2023-02-03T05:31:44;19.03;;;11.13;;
12469;SDS011;36499;46.484;13.832;2023-02-03T05:34:11;13.23;;;10.03;;
12469;SDS011;36499;46.484;13.832;2023-02-03T05:36:38;16.73;;;10.57;;
12469;SDS011;36499;46.484;13.832;2023-02-03T05:39:05;12.87;;;9.93;;
12469;SDS011;36499;46.484;13.832;2023-02-03T05:41:32;16.67;;;10.67;;
12469;SDS011;36499;46.484;13.832;2023-02-03T05:44:17;15.23;;;10.33;;
12469;SDS011;36499;46.484;13.832;2023-02-03T05:46:45;14.07;;;9.90;;
12469;SDS011;36499;46.484;13.832;2023-02-03T05:49:13;12.80;;;8.50;;
12469;SDS011;36499;46.484;13.832;2023-02-03T05:51:40;12.90;;;8.93;;
12469;SDS011;36499;46.484;13.832;2023-02-03T05:54:07;15.70;;;9.77;;
12469;SDS011;36499;46.484;13.832;2023-02-03T05:56:35;14.20;;;9.87;;
12469;SDS011;36499;46.484;13.832;2023-02-03T05:59:02;13.93;;;9.93;;
12469;SDS011;36499;46.484;13.832;2023-02-03T06:01:30;14.77;;;10.33;;
12469;SDS011;36499;46.484;13.832;2023-02-03T06:04:00;9.53;;;7.40;;
12469;SDS011;36499;46.484;13.832;2023-02-03T06:06:28;11.97;;;8.10;;
12469;SDS011;36499;46.484;13.832;2023-02-03T06:08:58;11.43;;;8.57;;
12469;SDS011;36499;46.484;13.832;2023-02-03T06:11:26;12.57;;;9.00;;
12469;SDS011;36499;46.484;13.832;2023-02-03T06:13:53;19.30;;;13.13;;
12469;SDS011;36499;46.484;13.832;2023-02-03T06:16:22;15.40;;;10.90;;
12469;SDS011;36499;46.484;13.832;2023-02-03T06:18:49;22.90;;;12.20;;
12469;SDS011;36499;46.484;13.832;2023-02-03T06:21:19;21.53;;;13.07;;
12469;SDS011;36499;46.484;13.832;2023-02-03T06:23:47;18.83;;;12.50;;
12469;SDS011;36499;46.484;13.832;2023-02-03T06:26:14;19.50;;;13.23;;
12469;SDS011;36499;46.484;13.832;2023-02-03T06:28:41;19.53;;;12.57;;
12469;SDS011;36499;46.484;13.832;2023-02-03T06:31:08;13.53;;;10.63;;
12469;SDS011;36499;46.484;13.832;2023-02-03T06:33:35;16.00;;;11.33;;
12469;SDS011;36499;46.484;13.832;2023-02-03T06:36:02;16.83;;;11.17;;
12469;SDS011;36499;46.484;13.832;2023-02-03T06:38:32;17.00;;;11.37;;
12469;SDS011;36499;46.484;13.832;2023-02-03T06:40:59;17.13;;;11.63;;
12469;SDS011;36499;46.484;13.832;2023-02-03T06:43:26;15.07;;;10.63;;
12469;SDS011;36499;46.484;13.832;2023-02-03T06:45:53;19.73;;;11.83;;
12469;SDS011;36499;46.484;13.832;2023-02-03T06:48:20;22.03;;;12.83;;
12469;SDS011;36499;46.484;13.832;2023-02-03T06:50:47;15.90;;;9.90;;
12469;SDS011;36499;46.484;13.832;2023-02-03T06:53:15;12.03;;;8.23;;
12469;SDS011;36499;46.484;13.832;2023-02-03T06:55:43;12.43;;;7.97;;
12469;SDS011;36499;46.484;13.832;2023-02-03T06:58:11;11.30;;;7.77;;
12469;SDS011;36499;46.484;13.832;2023-02-03T07:00:38;11.50;;;7.57;;
12469;SDS011;36499;46.484;13.832;2023-02-03T07:03:05;9.80;;;6.83;;
12469;SDS011;36499;46.484;13.832;2023-02-03T07:05:33;9.40;;;6.00;;
12469;SDS011;36499;46.484;13.832;2023-02-03T07:08:00;10.10;;;6.40;;
12469;SDS011;36499;46.484;13.832;2023-02-03T07:10:28;7.90;;;6.17;;
12469;SDS011;36499;46.484;13.832;2023-02-03T07:13:01;10.63;;;6.40;;
12469;SDS011;36499;46.484;13.832;2023-02-03T07:15:29;9.83;;;7.10;;
12469;SDS011;36499;46.484;13.832;2023-02-03T07:17:56;10.73;;;6.87;;
12469;SDS011;36499;46.484;13.832;2023-02-03T07:20:23;10.97;;;7.93;;
12469;SDS011;36499;46.484;13.832;2023-02-03T07:22:51;15.03;;;8.93;;
12469;SDS011;36499;46.484;13.832;2023-02-03T07:25:19;17.83;;;11.03;;
12469;SDS011;36499;46.484;13.832;2023-02-03T07:27:46;14.17;;;10.07;;
12469;SDS011;36499;46.484;13.832;2023-02-03T07:30:15;20.40;;;13.53;;
12469;SDS011;36499;46.484;13.832;2023-02-03T07:32:45;19.23;;;11.77;;
12469;SDS011;36499;46.484;13.832;2023-02-03T07:35:13;13.93;;;9.07;;
12469;SDS011;36499;46.484;13.832;2023-02-03T07:37:41;13.97;;;9.07;;
12469;SDS011;36499;46.484;13.832;2023-02-03T07:40:08;13.57;;;9.30;;
12469;SDS011;36499;46.484;13.832;2023-02-03T07:42:39;9.90;;;7.30;;
12469;SDS011;36499;46.484;13.832;2023-02-03T07:45:08;11.77;;;7.63;;
12469;SDS011;36499;46.484;13.832;2023-02-03T07:47:38;9.73;;;7.27;;
12469;SDS011;36499;46.484;13.832;2023-02-03T07:50:06;14.43;;;8.00;;
12469;SDS011;36499;46.484;13.832;2023-02-03T07:52:34;12.60;;;7.63;;
12469;SDS011;36499;46.484;13.832;2023-02-03T07:55:01;10.33;;;7.43;;
12469;SDS011;36499;46.484;13.832;2023-02-03T07:57:29;11.00;;;7.00;;
12469;SDS011;36499;46.484;13.832;2023-02-03T07:59:56;11.47;;;7.97;;
12469;SDS011;36499;46.484;13.832;2023-02-03T08:02:23;10.57;;;7.10;;
12469;SDS011;36499;46.484;13.832;2023-02-03T08:04:51;9.70;;;6.60;;
12469;SDS011;36499;46.484;13.832;2023-02-03T08:07:21;9.90;;;6.20;;
12469;SDS011;36499;46.484;13.832;2023-02-03T08:09:48;8.17;;;5.50;;
12469;SDS011;36499;46.484;13.832;2023-02-03T08:12:16;6.70;;;4.73;;
12469;SDS011;36499;46.484;13.832;2023-02-03T08:14:43;8.43;;;5.27;;
12469;SDS011;36499;46.484;13.832;2023-02-03T08:17:10;7.17;;;5.17;;
12469;SDS011;36499;46.484;13.832;2023-02-03T08:19:37;9.43;;;5.73;;
12469;SDS011;36499;46.484;13.832;2023-02-03T08:22:05;7.77;;;4.87;;
12469;SDS011;36499;46.484;13.832;2023-02-03T08:24:32;7.33;;;4.73;;
12469;SDS011;36499;46.484;13.832;2023-02-03T08:26:59;10.07;;;5.40;;
12469;SDS011;36499;46.484;13.832;2023-02-03T08:29:26;6.83;;;4.93;;
12469;SDS011;36499;46.484;13.832;2023-02-03T08:31:53;8.00;;;5.63;;
12469;SDS011;36499;46.484;13.832;2023-02-03T08:34:22;6.67;;;4.73;;
12469;SDS011;36499;46.484;13.832;2023-02-03T08:36:49;4.80;;;3.97;;
12469;SDS011;36499;46.484;13.832;2023-02-03T08:39:18;5.47;;;3.53;;
12469;SDS011;36499;46.484;13.832;2023-02-03T08:41:45;4.60;;;3.50;;
12469;SDS011;36499;46.484;13.832;2023-02-03T08:44:12;5.03;;;3.40;;
12469;SDS011;36499;46.484;13.832;2023-02-03T08:46:39;4.27;;;3.10;;
12469;SDS011;36499;46.484;13.832;2023-02-03T08:49:08;5.33;;;3.30;;
12469;SDS011;36499;46.484;13.832;2023-02-03T08:51:35;3.90;;;3.20;;
12469;SDS011;36499;46.484;13.832;2023-02-03T08:54:03;3.93;;;2.90;;
12469;SDS011;36499;46.484;13.832;2023-02-03T08:56:31;4.63;;;3.13;;
12469;SDS011;36499;46.484;13.832;2023-02-03T08:58:59;2.83;;;2.30;;
12469;SDS011;36499;46.484;13.832;2023-02-03T09:01:26;2.67;;;2.17;;
12469;SDS011;36499;46.484;13.832;2023-02-03T09:03:53;2.80;;;2.20;;
12469;SDS011;36499;46.484;13.832;2023-02-03T09:06:20;3.20;;;2.50;;
12469;SDS011;36499;46.484;13.832;2023-02-03T09:08:48;2.30;;;1.90;;
12469;SDS011;36499;46.484;13.832;2023-02-03T09:11:16;3.27;;;2.20;;
12469;SDS011;36499;46.484;13.832;2023-02-03T09:13:45;3.40;;;1.80;;
12469;SDS011;36499;46.484;13.832;2023-02-03T09:16:13;2.07;;;1.63;;
12469;SDS011;36499;46.484;13.832;2023-02-03T09:18:42;2.97;;;1.60;;
12469;SDS011;36499;46.484;13.832;2023-02-03T09:21:09;1.93;;;1.67;;
12469;SDS011;36499;46.484;13.832;2023-02-03T09:23:39;1.87;;;1.53;;
12469;SDS011;36499;46.484;13.832;2023-02-03T09:26:07;2.63;;;1.50;;
12469;SDS011;36499;46.484;13.832;2023-02-03T09:28:36;1.63;;;1.30;;
12469;SDS011;36499;46.484;13.832;2023-02-03T09:31:06;1.40;;;1.27;;
12469;SDS011;36499;46.484;13.832;2023-02-03T09:33:37;2.20;;;1.57;;
12469;SDS011;36499;46.484;13.832;2023-02-03T09:36:05;2.10;;;1.33;;
12469;SDS011;36499;46.484;13.832;2023-02-03T09:38:33;1.03;;;0.93;;
12469;SDS011;36499;46.484;13.832;2023-02-03T09:41:01;2.03;;;1.20;;
12469;SDS011;36499;46.484;13.832;2023-02-03T09:44:07;0.90;;;0.90;;
12469;SDS011;36499;46.484;13.832;2023-02-03T09:46:46;1.93;;;0.90;;
12469;SDS011;36499;46.484;13.832;2023-02-03T09:49:21;1.13;;;1.03;;
12469;SDS011;36499;46.484;13.832;2023-02-03T09:51:54;1.43;;;1.33;;
12469;SDS011;36499;46.484;13.832;2023-02-03T09:54:31;1.50;;;1.40;;
12469;SDS011;36499;46.484;13.832;2023-02-03T09:57:11;4.30;;;2.90;;
12469;SDS011;36499;46.484;13.832;2023-02-03T09:59:44;3.23;;;2.40;;
12469;SDS011;36499;46.484;13.832;2023-02-03T10:02:18;5.43;;;3.03;;
12469;SDS011;36499;46.484;13.832;2023-02-03T10:05:00;5.33;;;3.03;;
12469;SDS011;36499;46.484;13.832;2023-02-03T10:07:41;3.67;;;2.23;;
12469;SDS011;36499;46.484;13.832;2023-02-03T10:10:24;4.27;;;2.90;;
12469;SDS011;36499;46.484;13.832;2023-02-03T10:13:05;4.60;;;3.30;;
12469;SDS011;36499;46.484;13.832;2023-02-03T10:15:51;3.57;;;2.57;;
12469;SDS011;36499;46.484;13.832;2023-02-03T10:18:39;4.40;;;2.97;;
12469;SDS011;36499;46.484;13.832;2023-02-03T10:21:15;4.10;;;3.10;;
12469;SDS011;36499;46.484;13.832;2023-02-03T10:23:51;5.17;;;2.60;;
12469;SDS011;36499;46.484;13.832;2023-02-03T10:26:21;3.57;;;2.80;;
12469;SDS011;36499;46.484;13.832;2023-02-03T10:28:54;5.57;;;2.83;;
12469;SDS011;36499;46.484;13.832;2023-02-03T10:31:23;4.13;;;2.93;;
12469;SDS011;36499;46.484;13.832;2023-02-03T10:33:57;9.30;;;6.57;;
12469;SDS011;36499;46.484;13.832;2023-02-03T10:36:30;3.97;;;2.80;;
12469;SDS011;36499;46.484;13.832;2023-02-03T10:39:14;4.20;;;3.13;;
12469;SDS011;36499;46.484;13.832;2023-02-03T10:41:49;4.43;;;3.10;;
12469;SDS011;36499;46.484;13.832;2023-02-03T10:44:18;3.63;;;2.80;;
12469;SDS011;36499;46.484;13.832;2023-02-03T10:46:45;5.03;;;3.20;;
12469;SDS011;36499;46.484;13.832;2023-02-03T10:49:13;4.80;;;3.00;;
12469;SDS011;36499;46.484;13.832;2023-02-03T10:51:43;6.00;;;3.27;;
12469;SDS011;36499;46.484;13.832;2023-02-03T10:54:24;6.17;;;3.10;;
12469;SDS011;36499;46.484;13.832;2023-02-03T10:56:56;5.83;;;3.60;;
12469;SDS011;36499;46.484;13.832;2023-02-03T10:59:30;3.53;;;3.07;;
12469;SDS011;36499;46.484;13.832;2023-02-03T11:02:05;4.37;;;3.10;;
12469;SDS011;36499;46.484;13.832;2023-02-03T11:04:37;19.70;;;12.60;;
12469;SDS011;36499;46.484;13.832;2023-02-03T11:07:05;9.27;;;3.83;;
12469;SDS011;36499;46.484;13.832;2023-02-03T11:09:49;4.00;;;2.93;;
12469;SDS011;36499;46.484;13.832;2023-02-03T11:12:17;5.73;;;3.10;;
12469;SDS011;36499;46.484;13.832;2023-02-03T11:14:45;4.77;;;2.90;;
12469;SDS011;36499;46.484;13.832;2023-02-03T11:17:16;3.87;;;2.90;;
12469;SDS011;36499;46.484;13.832;2023-02-03T11:19:48;6.60;;;3.23;;
12469;SDS011;36499;46.484;13.832;2023-02-03T11:22:27;3.87;;;3.10;;
12469;SDS011;36499;46.484;13.832;2023-02-03T11:24:59;12.90;;;4.27;;
12469;SDS011;36499;46.484;13.832;2023-02-03T11:27:30;9.53;;;3.63;;
12469;SDS011;36499;46.484;13.832;2023-02-03T11:30:06;5.10;;;3.07;;
12469;SDS011;36499;46.484;13.832;2023-02-03T11:32:40;5.07;;;3.20;;
12469;SDS011;36499;46.484;13.832;2023-02-03T11:35:16;3.80;;;2.53;;
12469;SDS011;36499;46.484;13.832;2023-02-03T11:37:46;4.93;;;4.07;;
12469;SDS011;36499;46.484;13.832;2023-02-03T11:40:25;17.87;;;6.47;;
12469;SDS011;36499;46.484;13.832;2023-02-03T11:43:04;5.93;;;3.97;;
12469;SDS011;36499;46.484;13.832;2023-02-03T11:45:42;6.40;;;3.37;;
12469;SDS011;36499;46.484;13.832;2023-02-03T11:48:14;5.57;;;3.30;;
12469;SDS011;36499;46.484;13.832;2023-02-03T11:50:56;4.97;;;2.80;;
12469;SDS011;36499;46.484;13.832;2023-02-03T11:53:36;5.30;;;3.17;;
12469;SDS011;36499;46.484;13.832;2023-02-03T11:56:25;3.80;;;2.93;;
12469;SDS011;36499;46.484;13.832;2023-02-03T11:59:18;3.77;;;3.03;;
12469;SDS011;36499;46.484;13.832;2023-02-03T12:05:38;4.40;;;3.00;;
12469;SDS011;36499;46.484;13.832;2023-02-03T12:08:44;4.50;;;3.47;;
12469;SDS011;36499;46.484;13.832;2023-02-03T12:11:31;6.07;;;3.30;;
12469;SDS011;36499;46.484;13.832;2023-02-03T12:14:20;4.17;;;2.97;;
12469;SDS011;36499;46.484;13.832;2023-02-03T12:20:14;5.17;;;2.60;;
12469;SDS011;36499;46.484;13.832;2023-02-03T12:23:00;5.10;;;3.67;;
12469;SDS011;36499;46.484;13.832;2023-02-03T12:25:46;4.87;;;3.77;;
12469;SDS011;36499;46.484;13.832;2023-02-03T12:28:37;5.30;;;3.27;;
12469;SDS011;36499;46.484;13.832;2023-02-03T12:31:15;3.77;;;3.30;;
12469;SDS011;36499;46.484;13.832;2023-02-03T12:33:55;4.53;;;3.00;;
12469;SDS011;36499;46.484;13.832;2023-02-03T12:36:33;4.27;;;3.00;;
12469;SDS011;36499;46.484;13.832;2023-02-03T12:39:10;7.50;;;3.30;;
12469;SDS011;36499;46.484;13.832;2023-02-03T12:41:47;9.60;;;5.70;;
12469;SDS011;36499;46.484;13.832;2023-02-03T12:44:25;5.00;;;3.57;;
12469;SDS011;36499;46.484;13.832;2023-02-03T12:47:00;6.80;;;3.87;;
12469;SDS011;36499;46.484;13.832;2023-02-03T12:49:38;4.83;;;3.90;;
12469;SDS011;36499;46.484;13.832;2023-02-03T12:52:13;5.87;;;4.60;;
12469;SDS011;36499;46.484;13.832;2023-02-03T12:54:51;6.90;;;4.00;;
12469;SDS011;36499;46.484;13.832;2023-02-03T12:57:34;7.33;;;4.60;;
12469;SDS011;36499;46.484;13.832;2023-02-03T13:00:12;7.10;;;6.00;;
12469;SDS011;36499;46.484;13.832;2023-02-03T13:02:58;9.37;;;5.50;;
12469;SDS011;36499;46.484;13.832;2023-02-03T13:05:40;10.00;;;7.37;;
12469;SDS011;36499;46.484;13.832;2023-02-03T13:08:13;8.23;;;5.83;;
12469;SDS011;36499;46.484;13.832;2023-02-03T13:10:50;7.90;;;5.80;;
12469;SDS011;36499;46.484;13.832;2023-02-03T13:13:32;9.63;;;5.17;;
12469;SDS011;36499;46.484;13.832;2023-02-03T13:16:07;5.20;;;3.17;;
12469;SDS011;36499;46.484;13.832;2023-02-03T13:18:39;3.53;;;2.80;;
12469;SDS011;36499;46.484;13.832;2023-02-03T13:21:12;7.43;;;5.50;;
12469;SDS011;36499;46.484;13.832;2023-02-03T13:23:40;8.90;;;4.00;;
12469;SDS011;36499;46.484;13.832;2023-02-03T13:26:17;4.47;;;3.60;;
12469;SDS011;36499;46.484;13.832;2023-02-03T13:29:22;7.47;;;3.53;;
12469;SDS011;36499;46.484;13.832;2023-02-03T13:32:14;7.90;;;4.90;;
12469;SDS011;36499;46.484;13.832;2023-02-03T13:38:05;2.80;;;1.97;;
12469;SDS011;36499;46.484;13.832;2023-02-03T13:40:55;3.67;;;2.80;;
12469;SDS011;36499;46.484;13.832;2023-02-03T13:43:32;2.90;;;2.30;;
12469;SDS011;36499;46.484;13.832;2023-02-03T13:46:04;3.40;;;2.50;;
12469;SDS011;36499;46.484;13.832;2023-02-03T13:48:43;2.87;;;2.17;;
12469;SDS011;36499;46.484;13.832;2023-02-03T13:51:12;2.30;;;2.00;;
12469;SDS011;36499;46.484;13.832;2023-02-03T13:53:44;2.20;;;1.70;;
12469;SDS011;36499;46.484;13.832;2023-02-03T13:56:16;2.20;;;1.87;;
12469;SDS011;36499;46.484;13.832;2023-02-03T13:58:59;2.43;;;1.77;;
12469;SDS011;36499;46.484;13.832;2023-02-03T14:01:32;1.80;;;1.40;;
12469;SDS011;36499;46.484;13.832;2023-02-03T14:04:02;1.97;;;1.60;;
12469;SDS011;36499;46.484;13.832;2023-02-03T14:09:34;3.97;;;1.90;;
12469;SDS011;36499;46.484;13.832;2023-02-03T14:12:20;3.23;;;2.37;;
12469;SDS011;36499;46.484;13.832;2023-02-03T14:15:12;2.27;;;1.70;;
12469;SDS011;36499;46.484;13.832;2023-02-03T14:17:59;3.10;;;2.07;;
12469;SDS011;36499;46.484;13.832;2023-02-03T14:23:54;3.70;;;2.63;;
12469;SDS011;36499;46.484;13.832;2023-02-03T14:26:36;5.10;;;3.23;;
12469;SDS011;36499;46.484;13.832;2023-02-03T14:29:08;3.27;;;2.10;;
12469;SDS011;36499;46.484;13.832;2023-02-03T14:31:52;4.33;;;2.00;;
12469;SDS011;36499;46.484;13.832;2023-02-03T14:34:26;4.10;;;2.30;;
12469;SDS011;36499;46.484;13.832;2023-02-03T14:37:07;3.73;;;2.40;;
12469;SDS011;36499;46.484;13.832;2023-02-03T14:40:11;2.93;;;1.97;;
12469;SDS011;36499;46.484;13.832;2023-02-03T14:46:10;3.30;;;2.30;;
12469;SDS011;36499;46.484;13.832;2023-02-03T14:49:15;2.73;;;2.20;;
12469;SDS011;36499;46.484;13.832;2023-02-03T14:52:14;4.60;;;2.80;;
12469;SDS011;36499;46.484;13.832;2023-02-03T14:55:04;47.43;;;19.63;;
12469;SDS011;36499;46.484;13.832;2023-02-03T14:58:01;46.33;;;23.57;;
12469;SDS011;36499;46.484;13.832;2023-02-03T15:00:38;39.87;;;20.93;;
12469;SDS011;36499;46.484;13.832;2023-02-03T15:03:14;7.23;;;4.87;;
12469;SDS011;36499;46.484;13.832;2023-02-03T15:05:51;5.50;;;3.40;;
12469;SDS011;36499;46.484;13.832;2023-02-03T15:08:28;6.23;;;4.07;;
12469;SDS011;36499;46.484;13.832;2023-02-03T15:11:26;4.83;;;3.50;;
12469;SDS011;36499;46.484;13.832;2023-02-03T15:13:56;5.53;;;3.57;;
12469;SDS011;36499;46.484;13.832;2023-02-03T15:16:49;7.43;;;4.13;;
12469;SDS011;36499;46.484;13.832;2023-02-03T15:19:23;5.23;;;3.40;;
12469;SDS011;36499;46.484;13.832;2023-02-03T15:21:54;6.07;;;2.43;;
12469;SDS011;36499;46.484;13.832;2023-02-03T15:24:22;11.87;;;5.60;;